DAL2981 KATL-KMSP
Flight info
| Callsign | DAL2981 |
|---|---|
| Flight time | 2h 19m |
| Altitude | 34000 |
| Route | PENCL2 EMAHH CEASE IOW MNOSO BLUEM5 |
| Aircraft | A321/M-SDE3FGHIRWY/LB1 |
Departure
| Time | 2026-04-30 19:44 |
|---|---|
| Airport | Hartsfield Jackson Atlanta International Airport (KATL) |
Arrival
| Time | 2026-04-30 22:03 |
|---|---|
| Airport | Minneapolis–Saint Paul International Airport / Wold–Chamberlain Field (KMSP) |
| Time | Latitude | Longitude | Altitude | Speed | Heading |
|---|---|---|---|---|---|
| 2026-04-30 19:05 | 33.64211 | -84.43533 | 1023 ft | 0 kts | 270° |
| 2026-04-30 19:32 | 33.64211 | -84.43520 | 1022 ft | 2 kts | 270° |
| 2026-04-30 19:33 | 33.64211 | -84.43501 | 1022 ft | 2 kts | 270° |
| 2026-04-30 19:33 | 33.64211 | -84.43483 | 1022 ft | 2 kts | 290° |
| 2026-04-30 19:33 | 33.64202 | -84.43469 | 1022 ft | 2 kts | 320° |
| 2026-04-30 19:33 | 33.64188 | -84.43460 | 1022 ft | 2 kts | 351° |
| 2026-04-30 19:34 | 33.64182 | -84.43459 | 1022 ft | 1 kts | 5° |
| 2026-04-30 19:34 | 33.64177 | -84.43459 | 1022 ft | 0 kts | 1° |
| 2026-04-30 19:37 | 33.64178 | -84.43459 | 1022 ft | 0 kts | 1° |
| 2026-04-30 19:37 | 33.64187 | -84.43459 | 1022 ft | 2 kts | 0° |
| 2026-04-30 19:37 | 33.64206 | -84.43459 | 1022 ft | 4 kts | 0° |
| 2026-04-30 19:37 | 33.64266 | -84.43460 | 1022 ft | 12 kts | 359° |
| 2026-04-30 19:38 | 33.64372 | -84.43461 | 1022 ft | 15 kts | 359° |
| 2026-04-30 19:38 | 33.64456 | -84.43405 | 1022 ft | 15 kts | 77° |
| 2026-04-30 19:38 | 33.64460 | -84.43268 | 1022 ft | 16 kts | 90° |
| 2026-04-30 19:38 | 33.64460 | -84.43124 | 1022 ft | 18 kts | 90° |
| 2026-04-30 19:39 | 33.64460 | -84.42969 | 1022 ft | 18 kts | 90° |
| 2026-04-30 19:39 | 33.64461 | -84.42807 | 1022 ft | 19 kts | 87° |
| 2026-04-30 19:39 | 33.64468 | -84.42641 | 1021 ft | 21 kts | 90° |
| 2026-04-30 19:39 | 33.64468 | -84.42452 | 1017 ft | 23 kts | 89° |
| 2026-04-30 19:40 | 33.64479 | -84.42255 | 1013 ft | 23 kts | 70° |
| 2026-04-30 19:40 | 33.64539 | -84.42078 | 1013 ft | 23 kts | 85° |
| 2026-04-30 19:40 | 33.64541 | -84.41872 | 1008 ft | 25 kts | 90° |
| 2026-04-30 19:40 | 33.64540 | -84.41663 | 1007 ft | 24 kts | 90° |
| 2026-04-30 19:41 | 33.64540 | -84.41468 | 1011 ft | 22 kts | 90° |
| 2026-04-30 19:41 | 33.64540 | -84.41291 | 1015 ft | 20 kts | 90° |
| 2026-04-30 19:41 | 33.64540 | -84.41126 | 1018 ft | 19 kts | 90° |
| 2026-04-30 19:41 | 33.64540 | -84.40958 | 1022 ft | 20 kts | 90° |
| 2026-04-30 19:42 | 33.64555 | -84.40795 | 1028 ft | 18 kts | 73° |
| 2026-04-30 19:42 | 33.64570 | -84.40634 | 1034 ft | 16 kts | 86° |
| 2026-04-30 19:42 | 33.64645 | -84.40567 | 1035 ft | 8 kts | 2° |
| 2026-04-30 19:42 | 33.64677 | -84.40588 | 1035 ft | 6 kts | 277° |
| 2026-04-30 19:43 | 33.64678 | -84.40679 | 1033 ft | 22 kts | 271° |
| 2026-04-30 19:43 | 33.64678 | -84.41168 | 1017 ft | 92 kts | 270° |
| 2026-04-30 19:43 | 33.64678 | -84.42179 | 1012 ft | 149 kts | 270° |
| 2026-04-30 19:44 | 33.64697 | -84.44902 | 2005 ft | 158 kts | 272° |
| 2026-04-30 19:44 | 33.64775 | -84.46224 | 2438 ft | 165 kts | 288° |
| 2026-04-30 19:44 | 33.65158 | -84.47546 | 2862 ft | 171 kts | 294° |
| 2026-04-30 19:44 | 33.65585 | -84.48896 | 3170 ft | 178 kts | 297° |
| 2026-04-30 19:45 | 33.66086 | -84.50283 | 3532 ft | 183 kts | 298° |
| 2026-04-30 19:45 | 33.66667 | -84.51704 | 3821 ft | 193 kts | 301° |
| 2026-04-30 19:45 | 33.67307 | -84.53204 | 4034 ft | 210 kts | 300° |
| 2026-04-30 19:45 | 33.67970 | -84.54826 | 4323 ft | 226 kts | 298° |
| 2026-04-30 19:46 | 33.68725 | -84.56531 | 4610 ft | 240 kts | 310° |
| 2026-04-30 19:46 | 33.70066 | -84.57804 | 4916 ft | 252 kts | 337° |
| 2026-04-30 19:46 | 33.71798 | -84.58209 | 5416 ft | 260 kts | 359° |
| 2026-04-30 19:46 | 33.73610 | -84.58160 | 6062 ft | 262 kts | 359° |
| 2026-04-30 19:47 | 33.75497 | -84.58118 | 6701 ft | 266 kts | 359° |
| 2026-04-30 19:47 | 33.76748 | -84.58098 | 7125 ft | 268 kts | 358° |
| 2026-04-30 19:47 | 33.79262 | -84.58062 | 7953 ft | 272 kts | 358° |
| 2026-04-30 19:47 | 33.81147 | -84.58038 | 8571 ft | 275 kts | 356° |
| 2026-04-30 19:48 | 33.83087 | -84.58056 | 9203 ft | 277 kts | 353° |
| 2026-04-30 19:48 | 33.85028 | -84.58287 | 9791 ft | 278 kts | 347° |
| 2026-04-30 19:48 | 33.86968 | -84.58794 | 10365 ft | 281 kts | 342° |
| 2026-04-30 19:48 | 33.88963 | -84.59435 | 10675 ft | 295 kts | 341° |
| 2026-04-30 19:49 | 33.91038 | -84.60116 | 10951 ft | 310 kts | 341° |
| 2026-04-30 19:49 | 33.95495 | -84.61569 | 11487 ft | 337 kts | 341° |
| 2026-04-30 19:49 | 33.97846 | -84.62330 | 11934 ft | 344 kts | 341° |
| 2026-04-30 19:50 | 34.00172 | -84.63078 | 12497 ft | 346 kts | 341° |
| 2026-04-30 19:50 | 34.02526 | -84.63837 | 13057 ft | 348 kts | 341° |
| 2026-04-30 19:50 | 34.04895 | -84.64602 | 13601 ft | 350 kts | 341° |
| 2026-04-30 19:50 | 34.07254 | -84.65363 | 14138 ft | 352 kts | 340° |
| 2026-04-30 19:51 | 34.09633 | -84.66133 | 14672 ft | 354 kts | 340° |
| 2026-04-30 19:51 | 34.12056 | -84.66917 | 15208 ft | 356 kts | 340° |
| 2026-04-30 19:51 | 34.14527 | -84.67721 | 15744 ft | 358 kts | 339° |
| 2026-04-30 19:51 | 34.16919 | -84.68495 | 16279 ft | 359 kts | 339° |
| 2026-04-30 19:52 | 34.19360 | -84.69291 | 16777 ft | 361 kts | 339° |
| 2026-04-30 19:52 | 34.21911 | -84.70118 | 17310 ft | 362 kts | 339° |
| 2026-04-30 19:52 | 34.24422 | -84.70938 | 17788 ft | 364 kts | 338° |
| 2026-04-30 19:52 | 34.26862 | -84.71857 | 18228 ft | 364 kts | 335° |
| 2026-04-30 19:53 | 34.29276 | -84.72862 | 18664 ft | 366 kts | 334° |
| 2026-04-30 19:53 | 34.31692 | -84.73878 | 19064 ft | 369 kts | 334° |
| 2026-04-30 19:53 | 34.34155 | -84.74921 | 19473 ft | 371 kts | 334° |
| 2026-04-30 19:53 | 34.36610 | -84.75963 | 19913 ft | 373 kts | 333° |
| 2026-04-30 19:54 | 34.39218 | -84.77065 | 20364 ft | 374 kts | 333° |
| 2026-04-30 19:54 | 34.41811 | -84.78163 | 20785 ft | 376 kts | 333° |
| 2026-04-30 19:54 | 34.44435 | -84.79275 | 21225 ft | 378 kts | 333° |
| 2026-04-30 19:54 | 34.47015 | -84.80366 | 21621 ft | 380 kts | 333° |
| 2026-04-30 19:55 | 34.49691 | -84.81505 | 21994 ft | 383 kts | 333° |
| 2026-04-30 19:55 | 34.52352 | -84.82633 | 22381 ft | 385 kts | 332° |
| 2026-04-30 19:55 | 34.55051 | -84.83781 | 22782 ft | 386 kts | 332° |
| 2026-04-30 19:55 | 34.57718 | -84.84915 | 23156 ft | 388 kts | 332° |
| 2026-04-30 19:56 | 34.60414 | -84.86062 | 23533 ft | 389 kts | 332° |
| 2026-04-30 19:56 | 34.63105 | -84.87207 | 23900 ft | 391 kts | 332° |
| 2026-04-30 19:56 | 34.65723 | -84.88321 | 24243 ft | 392 kts | 331° |
| 2026-04-30 19:56 | 34.68395 | -84.89460 | 24627 ft | 393 kts | 331° |
| 2026-04-30 19:57 | 34.71025 | -84.90580 | 24989 ft | 393 kts | 331° |
| 2026-04-30 19:57 | 34.73598 | -84.91679 | 25329 ft | 394 kts | 331° |
| 2026-04-30 19:57 | 34.76164 | -84.92776 | 25673 ft | 394 kts | 331° |
| 2026-04-30 19:57 | 34.78817 | -84.93909 | 26034 ft | 394 kts | 330° |
| 2026-04-30 19:58 | 34.81490 | -84.95052 | 26367 ft | 394 kts | 330° |
| 2026-04-30 19:58 | 34.84110 | -84.96174 | 26690 ft | 395 kts | 330° |
| 2026-04-30 19:58 | 34.86736 | -84.97298 | 27008 ft | 395 kts | 330° |
| 2026-04-30 19:58 | 34.89411 | -84.98447 | 27284 ft | 396 kts | 330° |
| 2026-04-30 19:59 | 34.92023 | -84.99567 | 27572 ft | 397 kts | 329° |
| 2026-04-30 19:59 | 34.94686 | -85.00713 | 27777 ft | 399 kts | 329° |
| 2026-04-30 19:59 | 35.00057 | -85.03025 | 28295 ft | 401 kts | 329° |
| 2026-04-30 20:00 | 35.02683 | -85.04151 | 28634 ft | 400 kts | 329° |
| 2026-04-30 20:00 | 35.05351 | -85.05299 | 29043 ft | 396 kts | 328° |
| 2026-04-30 20:00 | 35.07923 | -85.06512 | 29499 ft | 387 kts | 326° |
| 2026-04-30 20:00 | 35.10437 | -85.07880 | 29875 ft | 381 kts | 323° |
| 2026-04-30 20:01 | 35.15076 | -85.10935 | 30547 ft | 371 kts | 318° |
| 2026-04-30 20:01 | 35.17264 | -85.12630 | 30853 ft | 367 kts | 316° |
| 2026-04-30 20:01 | 35.19410 | -85.14349 | 31202 ft | 365 kts | 316° |
| 2026-04-30 20:02 | 35.23668 | -85.17776 | 31850 ft | 361 kts | 316° |
| 2026-04-30 20:02 | 35.25782 | -85.19489 | 32165 ft | 360 kts | 315° |
| 2026-04-30 20:03 | 35.30028 | -85.22932 | 32643 ft | 359 kts | 316° |
| 2026-04-30 20:03 | 35.32149 | -85.24659 | 32885 ft | 359 kts | 316° |
| 2026-04-30 20:03 | 35.34234 | -85.26350 | 33145 ft | 358 kts | 316° |
| 2026-04-30 20:03 | 35.36376 | -85.28082 | 33365 ft | 357 kts | 315° |
| 2026-04-30 20:04 | 35.38507 | -85.29818 | 33505 ft | 359 kts | 315° |
| 2026-04-30 20:04 | 35.40658 | -85.31575 | 33746 ft | 358 kts | 315° |
| 2026-04-30 20:04 | 35.42786 | -85.33310 | 33966 ft | 357 kts | 316° |
| 2026-04-30 20:05 | 35.47109 | -85.36833 | 33988 ft | 359 kts | 315° |
| 2026-04-30 20:05 | 35.53518 | -85.42068 | 33995 ft | 359 kts | 315° |
| 2026-04-30 20:06 | 35.57825 | -85.45590 | 33999 ft | 358 kts | 315° |
| 2026-04-30 20:06 | 35.62096 | -85.49085 | 33998 ft | 358 kts | 315° |
| 2026-04-30 20:07 | 35.66350 | -85.52565 | 34001 ft | 358 kts | 315° |
| 2026-04-30 20:08 | 35.72755 | -85.57821 | 34008 ft | 358 kts | 314° |
| 2026-04-30 20:08 | 35.77003 | -85.61313 | 34013 ft | 359 kts | 314° |
| 2026-04-30 20:09 | 35.81240 | -85.64806 | 34014 ft | 359 kts | 315° |
| 2026-04-30 20:09 | 35.87472 | -85.69946 | 34023 ft | 357 kts | 314° |
| 2026-04-30 20:10 | 35.93792 | -85.75173 | 34028 ft | 358 kts | 314° |
| 2026-04-30 20:11 | 36.00097 | -85.80399 | 34030 ft | 359 kts | 314° |
| 2026-04-30 20:11 | 36.04286 | -85.83875 | 34033 ft | 357 kts | 314° |
| 2026-04-30 20:12 | 36.10397 | -85.89432 | 34031 ft | 355 kts | 310° |
| 2026-04-30 20:13 | 36.14345 | -85.93204 | 34035 ft | 353 kts | 311° |
| 2026-04-30 20:13 | 36.18261 | -85.96950 | 34035 ft | 354 kts | 310° |
| 2026-04-30 20:14 | 36.22218 | -86.00742 | 34036 ft | 354 kts | 310° |
| 2026-04-30 20:14 | 36.26167 | -86.04536 | 34034 ft | 355 kts | 310° |
| 2026-04-30 20:15 | 36.30104 | -86.08322 | 34037 ft | 354 kts | 310° |
| 2026-04-30 20:15 | 36.34038 | -86.12112 | 34035 ft | 353 kts | 311° |
| 2026-04-30 20:16 | 36.37952 | -86.15886 | 34038 ft | 353 kts | 311° |
| 2026-04-30 20:16 | 36.41877 | -86.19669 | 34041 ft | 355 kts | 310° |
| 2026-04-30 20:17 | 36.45808 | -86.23474 | 34043 ft | 354 kts | 311° |
| 2026-04-30 20:17 | 36.49725 | -86.27264 | 34043 ft | 353 kts | 310° |
| 2026-04-30 20:18 | 36.53636 | -86.31058 | 34045 ft | 352 kts | 311° |
| 2026-04-30 20:18 | 36.57532 | -86.34841 | 34043 ft | 353 kts | 310° |
| 2026-04-30 20:19 | 36.61446 | -86.38644 | 34038 ft | 353 kts | 310° |
| 2026-04-30 20:19 | 36.65344 | -86.42439 | 34035 ft | 355 kts | 310° |
| 2026-04-30 20:20 | 36.69251 | -86.46252 | 34035 ft | 352 kts | 311° |
| 2026-04-30 20:20 | 36.73150 | -86.50057 | 34034 ft | 354 kts | 310° |
| 2026-04-30 20:21 | 36.77043 | -86.53860 | 34033 ft | 354 kts | 310° |
| 2026-04-30 20:21 | 36.80915 | -86.57649 | 34034 ft | 354 kts | 310° |
| 2026-04-30 20:22 | 36.84797 | -86.61446 | 34033 ft | 354 kts | 310° |
| 2026-04-30 20:22 | 36.88659 | -86.65239 | 34037 ft | 354 kts | 310° |
| 2026-04-30 20:23 | 36.92533 | -86.69047 | 34035 ft | 352 kts | 310° |
| 2026-04-30 20:23 | 36.96405 | -86.72849 | 34033 ft | 352 kts | 309° |
| 2026-04-30 20:24 | 37.00264 | -86.76653 | 34034 ft | 352 kts | 310° |
| 2026-04-30 20:24 | 37.04095 | -86.80428 | 34032 ft | 352 kts | 309° |
| 2026-04-30 20:25 | 37.09874 | -86.86139 | 34033 ft | 352 kts | 309° |
| 2026-04-30 20:26 | 37.15641 | -86.91854 | 34036 ft | 352 kts | 310° |
| 2026-04-30 20:26 | 37.21408 | -86.97575 | 34037 ft | 353 kts | 310° |
| 2026-04-30 20:27 | 37.29081 | -87.05203 | 34037 ft | 354 kts | 309° |
| 2026-04-30 20:28 | 37.36782 | -87.12889 | 34040 ft | 354 kts | 310° |
| 2026-04-30 20:30 | 37.46435 | -87.22532 | 34046 ft | 354 kts | 310° |
| 2026-04-30 20:31 | 37.57993 | -87.34129 | 34052 ft | 355 kts | 310° |
| 2026-04-30 20:32 | 37.67658 | -87.43870 | 34058 ft | 356 kts | 310° |
| 2026-04-30 20:33 | 37.73451 | -87.49720 | 34062 ft | 356 kts | 311° |
| 2026-04-30 20:34 | 37.79247 | -87.55587 | 34073 ft | 357 kts | 311° |
| 2026-04-30 20:35 | 37.90617 | -87.67130 | 34078 ft | 358 kts | 310° |
| 2026-04-30 20:36 | 37.94496 | -87.71075 | 34073 ft | 358 kts | 310° |
| 2026-04-30 20:37 | 38.00378 | -87.77074 | 34068 ft | 357 kts | 310° |
| 2026-04-30 20:37 | 38.04347 | -87.81130 | 34068 ft | 357 kts | 310° |
| 2026-04-30 20:38 | 38.08251 | -87.85126 | 34061 ft | 356 kts | 310° |
| 2026-04-30 20:38 | 38.12129 | -87.89097 | 34017 ft | 357 kts | 310° |
| 2026-04-30 20:39 | 38.17944 | -87.95068 | 34053 ft | 359 kts | 310° |
| 2026-04-30 20:40 | 38.23736 | -88.01026 | 34056 ft | 358 kts | 310° |
| 2026-04-30 20:40 | 38.27613 | -88.05022 | 34049 ft | 359 kts | 310° |
| 2026-04-30 20:41 | 38.33440 | -88.11037 | 34050 ft | 358 kts | 310° |
| 2026-04-30 20:41 | 38.37302 | -88.15031 | 34053 ft | 359 kts | 310° |
| 2026-04-30 20:42 | 38.41161 | -88.19028 | 34060 ft | 359 kts | 310° |
| 2026-04-30 20:43 | 38.46997 | -88.25082 | 34066 ft | 359 kts | 310° |
| 2026-04-30 20:43 | 38.50869 | -88.29106 | 34064 ft | 360 kts | 310° |
| 2026-04-30 20:44 | 38.56683 | -88.35158 | 34070 ft | 361 kts | 310° |
| 2026-04-30 20:45 | 38.64466 | -88.43282 | 34067 ft | 361 kts | 310° |
| 2026-04-30 20:45 | 38.68344 | -88.47343 | 34068 ft | 360 kts | 310° |
| 2026-04-30 20:46 | 38.76111 | -88.55484 | 34057 ft | 361 kts | 310° |
| 2026-04-30 20:47 | 38.81916 | -88.61584 | 34040 ft | 361 kts | 310° |
| 2026-04-30 20:48 | 38.87746 | -88.67727 | 34037 ft | 360 kts | 309° |
| 2026-04-30 20:48 | 38.91603 | -88.71796 | 34027 ft | 360 kts | 309° |
| 2026-04-30 20:49 | 38.95459 | -88.75874 | 34023 ft | 359 kts | 310° |
| 2026-04-30 20:50 | 39.01249 | -88.82001 | 34018 ft | 360 kts | 310° |
| 2026-04-30 20:50 | 39.05107 | -88.86089 | 34017 ft | 361 kts | 309° |
| 2026-04-30 20:51 | 39.08984 | -88.90211 | 34013 ft | 360 kts | 310° |
| 2026-04-30 20:51 | 39.14769 | -88.96363 | 34013 ft | 361 kts | 309° |
| 2026-04-30 20:52 | 39.18663 | -89.00516 | 34011 ft | 363 kts | 309° |
| 2026-04-30 20:53 | 39.24500 | -89.06754 | 34014 ft | 365 kts | 310° |
| 2026-04-30 20:53 | 39.28398 | -89.10924 | 34014 ft | 364 kts | 310° |
| 2026-04-30 20:54 | 39.34245 | -89.17191 | 34011 ft | 365 kts | 310° |
| 2026-04-30 20:55 | 39.40104 | -89.23486 | 34015 ft | 367 kts | 310° |
| 2026-04-30 20:55 | 39.44025 | -89.27711 | 34022 ft | 366 kts | 310° |
| 2026-04-30 20:56 | 39.49912 | -89.34060 | 34044 ft | 369 kts | 310° |
| 2026-04-30 20:57 | 39.55815 | -89.40446 | 34030 ft | 371 kts | 310° |
| 2026-04-30 20:57 | 39.59752 | -89.44703 | 34031 ft | 369 kts | 310° |
| 2026-04-30 20:58 | 39.65680 | -89.51143 | 34031 ft | 372 kts | 310° |
| 2026-04-30 20:58 | 39.69635 | -89.55443 | 34029 ft | 372 kts | 311° |
| 2026-04-30 20:59 | 39.75615 | -89.61955 | 34031 ft | 374 kts | 310° |
| 2026-04-30 21:00 | 39.83572 | -89.70650 | 34039 ft | 375 kts | 310° |
| 2026-04-30 21:01 | 39.89585 | -89.77240 | 34034 ft | 376 kts | 310° |
| 2026-04-30 21:02 | 39.95569 | -89.83809 | 34023 ft | 376 kts | 310° |
| 2026-04-30 21:02 | 39.99585 | -89.88226 | 34028 ft | 376 kts | 310° |
| 2026-04-30 21:03 | 40.03581 | -89.92627 | 34030 ft | 377 kts | 310° |
| 2026-04-30 21:03 | 40.07584 | -89.97047 | 34028 ft | 377 kts | 310° |
| 2026-04-30 21:04 | 40.11580 | -90.01466 | 34032 ft | 377 kts | 310° |
| 2026-04-30 21:04 | 40.17616 | -90.08156 | 34019 ft | 379 kts | 310° |
| 2026-04-30 21:05 | 40.21660 | -90.12645 | 34014 ft | 380 kts | 311° |
| 2026-04-30 21:05 | 40.25668 | -90.17097 | 34013 ft | 380 kts | 310° |
| 2026-04-30 21:06 | 40.29710 | -90.21602 | 34017 ft | 381 kts | 311° |
| 2026-04-30 21:06 | 40.33740 | -90.26099 | 34003 ft | 381 kts | 311° |
| 2026-04-30 21:07 | 40.37788 | -90.30621 | 34004 ft | 381 kts | 311° |
| 2026-04-30 21:07 | 40.41823 | -90.35140 | 34002 ft | 382 kts | 311° |
| 2026-04-30 21:08 | 40.45853 | -90.39658 | 33994 ft | 382 kts | 311° |
| 2026-04-30 21:08 | 40.49899 | -90.44198 | 33997 ft | 383 kts | 311° |
| 2026-04-30 21:09 | 40.53937 | -90.48743 | 34000 ft | 384 kts | 311° |
| 2026-04-30 21:09 | 40.58025 | -90.53345 | 34002 ft | 385 kts | 311° |
| 2026-04-30 21:10 | 40.62080 | -90.57919 | 34002 ft | 385 kts | 311° |
| 2026-04-30 21:10 | 40.66119 | -90.62484 | 33995 ft | 384 kts | 311° |
| 2026-04-30 21:11 | 40.70195 | -90.67101 | 33996 ft | 385 kts | 311° |
| 2026-04-30 21:11 | 40.74253 | -90.71701 | 33981 ft | 386 kts | 311° |
| 2026-04-30 21:12 | 40.78326 | -90.76327 | 33976 ft | 385 kts | 311° |
| 2026-04-30 21:12 | 40.82375 | -90.80932 | 33982 ft | 385 kts | 311° |
| 2026-04-30 21:13 | 40.86419 | -90.85542 | 33981 ft | 386 kts | 311° |
| 2026-04-30 21:13 | 40.90498 | -90.90198 | 33972 ft | 387 kts | 311° |
| 2026-04-30 21:14 | 40.94572 | -90.94857 | 33987 ft | 388 kts | 311° |
| 2026-04-30 21:14 | 40.98627 | -90.99503 | 33969 ft | 388 kts | 311° |
| 2026-04-30 21:15 | 41.02713 | -91.04192 | 33974 ft | 389 kts | 312° |
| 2026-04-30 21:15 | 41.06787 | -91.08875 | 33973 ft | 388 kts | 312° |
| 2026-04-30 21:16 | 41.10889 | -91.13596 | 33974 ft | 388 kts | 312° |
| 2026-04-30 21:16 | 41.14983 | -91.18317 | 33975 ft | 389 kts | 312° |
| 2026-04-30 21:17 | 41.19059 | -91.23029 | 33983 ft | 390 kts | 312° |
| 2026-04-30 21:17 | 41.23174 | -91.27791 | 33991 ft | 390 kts | 312° |
| 2026-04-30 21:18 | 41.27271 | -91.32542 | 33991 ft | 390 kts | 312° |
| 2026-04-30 21:18 | 41.31352 | -91.37282 | 33995 ft | 391 kts | 312° |
| 2026-04-30 21:19 | 41.35463 | -91.42065 | 33998 ft | 392 kts | 312° |
| 2026-04-30 21:19 | 41.39562 | -91.46844 | 33997 ft | 391 kts | 312° |
| 2026-04-30 21:20 | 41.43646 | -91.51617 | 34005 ft | 392 kts | 312° |
| 2026-04-30 21:20 | 41.47750 | -91.56425 | 34014 ft | 393 kts | 312° |
| 2026-04-30 21:21 | 41.51880 | -91.61237 | 34015 ft | 395 kts | 313° |
| 2026-04-30 21:22 | 41.58307 | -91.68173 | 34030 ft | 397 kts | 314° |
| 2026-04-30 21:23 | 41.66911 | -91.77450 | 34032 ft | 396 kts | 314° |
| 2026-04-30 21:23 | 41.73317 | -91.84382 | 34028 ft | 397 kts | 314° |
| 2026-04-30 21:24 | 41.77632 | -91.89061 | 34031 ft | 398 kts | 314° |
| 2026-04-30 21:24 | 41.81935 | -91.93738 | 34033 ft | 400 kts | 314° |
| 2026-04-30 21:25 | 41.88443 | -92.00829 | 34032 ft | 400 kts | 314° |
| 2026-04-30 21:26 | 41.94908 | -92.07890 | 34031 ft | 400 kts | 314° |
| 2026-04-30 21:27 | 42.01401 | -92.15002 | 34028 ft | 401 kts | 314° |
| 2026-04-30 21:27 | 42.05721 | -92.19743 | 34026 ft | 402 kts | 314° |
| 2026-04-30 21:28 | 42.12283 | -92.26965 | 34021 ft | 402 kts | 314° |
| 2026-04-30 21:29 | 42.18793 | -92.34150 | 34021 ft | 403 kts | 314° |
| 2026-04-30 21:30 | 42.29672 | -92.46205 | 34025 ft | 405 kts | 314° |
| 2026-04-30 21:31 | 42.41227 | -92.57433 | 33591 ft | 415 kts | 324° |
| 2026-04-30 21:32 | 42.46388 | -92.60963 | 33167 ft | 418 kts | 327° |
| 2026-04-30 21:32 | 42.49014 | -92.62658 | 32954 ft | 418 kts | 327° |
| 2026-04-30 21:32 | 42.51644 | -92.64352 | 32746 ft | 419 kts | 327° |
| 2026-04-30 21:32 | 42.54292 | -92.66057 | 32546 ft | 419 kts | 327° |
| 2026-04-30 21:33 | 42.56971 | -92.67783 | 32350 ft | 418 kts | 327° |
| 2026-04-30 21:33 | 42.62210 | -92.71166 | 32038 ft | 417 kts | 327° |
| 2026-04-30 21:34 | 42.67487 | -92.74585 | 32027 ft | 418 kts | 327° |
| 2026-04-30 21:34 | 42.75351 | -92.79694 | 32015 ft | 418 kts | 327° |
| 2026-04-30 21:35 | 42.80597 | -92.83115 | 32022 ft | 419 kts | 327° |
| 2026-04-30 21:35 | 42.85860 | -92.86577 | 32022 ft | 419 kts | 327° |
| 2026-04-30 21:36 | 42.91122 | -92.90051 | 32018 ft | 420 kts | 327° |
| 2026-04-30 21:37 | 43.01654 | -92.97017 | 31816 ft | 412 kts | 328° |
| 2026-04-30 21:37 | 43.04232 | -92.98724 | 31623 ft | 410 kts | 328° |
| 2026-04-30 21:37 | 43.06815 | -93.00442 | 31429 ft | 409 kts | 327° |
| 2026-04-30 21:38 | 43.09366 | -93.02138 | 31235 ft | 408 kts | 328° |
| 2026-04-30 21:38 | 43.11960 | -93.03866 | 31033 ft | 408 kts | 328° |
| 2026-04-30 21:38 | 43.14537 | -93.05583 | 30836 ft | 408 kts | 328° |
| 2026-04-30 21:38 | 43.17089 | -93.07286 | 30633 ft | 408 kts | 328° |
| 2026-04-30 21:39 | 43.19638 | -93.08988 | 30424 ft | 409 kts | 328° |
| 2026-04-30 21:39 | 43.22194 | -93.10695 | 30207 ft | 409 kts | 328° |
| 2026-04-30 21:39 | 43.24783 | -93.12425 | 29973 ft | 410 kts | 328° |
| 2026-04-30 21:39 | 43.27353 | -93.14147 | 29727 ft | 411 kts | 328° |
| 2026-04-30 21:40 | 43.29922 | -93.15869 | 29434 ft | 412 kts | 328° |
| 2026-04-30 21:40 | 43.32537 | -93.17623 | 28952 ft | 414 kts | 328° |
| 2026-04-30 21:40 | 43.35106 | -93.19352 | 28316 ft | 415 kts | 329° |
| 2026-04-30 21:40 | 43.37704 | -93.21098 | 27596 ft | 415 kts | 329° |
| 2026-04-30 21:41 | 43.40310 | -93.22849 | 26847 ft | 416 kts | 329° |
| 2026-04-30 21:41 | 43.42935 | -93.24617 | 26081 ft | 416 kts | 329° |
| 2026-04-30 21:41 | 43.45515 | -93.26354 | 25567 ft | 410 kts | 329° |
| 2026-04-30 21:41 | 43.48161 | -93.27786 | 25052 ft | 410 kts | 338° |
| 2026-04-30 21:42 | 43.50950 | -93.28604 | 24525 ft | 411 kts | 347° |
| 2026-04-30 21:42 | 43.53832 | -93.28803 | 23996 ft | 419 kts | 356° |
| 2026-04-30 21:42 | 43.56756 | -93.28592 | 23441 ft | 416 kts | 359° |
| 2026-04-30 21:42 | 43.59621 | -93.28307 | 22903 ft | 412 kts | 359° |
| 2026-04-30 21:43 | 43.62468 | -93.28012 | 22386 ft | 408 kts | 359° |
| 2026-04-30 21:43 | 43.65286 | -93.27723 | 21854 ft | 404 kts | 359° |
| 2026-04-30 21:43 | 43.68092 | -93.27443 | 21325 ft | 400 kts | 359° |
| 2026-04-30 21:43 | 43.70888 | -93.27167 | 20812 ft | 396 kts | 359° |
| 2026-04-30 21:44 | 43.73607 | -93.26899 | 20284 ft | 393 kts | 359° |
| 2026-04-30 21:44 | 43.76364 | -93.26632 | 19775 ft | 389 kts | 359° |
| 2026-04-30 21:44 | 43.79037 | -93.26374 | 19287 ft | 386 kts | 359° |
| 2026-04-30 21:44 | 43.81706 | -93.26115 | 18772 ft | 383 kts | 360° |
| 2026-04-30 21:45 | 43.84387 | -93.25856 | 18262 ft | 380 kts | 360° |
| 2026-04-30 21:45 | 43.87004 | -93.25603 | 17771 ft | 377 kts | 0° |
| 2026-04-30 21:45 | 43.89617 | -93.25350 | 17539 ft | 370 kts | 0° |
| 2026-04-30 21:45 | 43.92160 | -93.25101 | 17324 ft | 365 kts | 0° |
| 2026-04-30 21:46 | 43.94708 | -93.24852 | 17038 ft | 356 kts | 0° |
| 2026-04-30 21:46 | 43.97140 | -93.24610 | 16834 ft | 345 kts | 0° |
| 2026-04-30 21:46 | 43.99525 | -93.24360 | 16384 ft | 341 kts | 1° |
| 2026-04-30 21:46 | 44.01900 | -93.24106 | 15949 ft | 337 kts | 1° |
| 2026-04-30 21:47 | 44.04248 | -93.23852 | 15542 ft | 334 kts | 1° |
| 2026-04-30 21:47 | 44.06562 | -93.23604 | 15125 ft | 330 kts | 1° |
| 2026-04-30 21:47 | 44.08837 | -93.23360 | 14718 ft | 327 kts | 1° |
| 2026-04-30 21:47 | 44.11142 | -93.23113 | 14295 ft | 324 kts | 1° |
| 2026-04-30 21:48 | 44.13416 | -93.22869 | 13866 ft | 321 kts | 1° |
| 2026-04-30 21:48 | 44.15640 | -93.22632 | 13447 ft | 318 kts | 1° |
| 2026-04-30 21:48 | 44.17855 | -93.22395 | 13024 ft | 316 kts | 2° |
| 2026-04-30 21:48 | 44.20045 | -93.22179 | 12608 ft | 312 kts | 1° |
| 2026-04-30 21:49 | 44.22212 | -93.21983 | 12205 ft | 309 kts | 1° |
| 2026-04-30 21:49 | 44.24357 | -93.21791 | 11802 ft | 307 kts | 1° |
| 2026-04-30 21:49 | 44.26505 | -93.21597 | 11386 ft | 304 kts | 1° |
| 2026-04-30 21:49 | 44.28617 | -93.21406 | 10980 ft | 301 kts | 1° |
| 2026-04-30 21:50 | 44.30716 | -93.21234 | 10577 ft | 298 kts | 1° |
| 2026-04-30 21:50 | 44.32765 | -93.21075 | 10323 ft | 289 kts | 1° |
| 2026-04-30 21:50 | 44.34749 | -93.20919 | 10213 ft | 276 kts | 1° |
| 2026-04-30 21:50 | 44.36647 | -93.20729 | 10086 ft | 265 kts | 4° |
| 2026-04-30 21:51 | 44.38444 | -93.20358 | 9910 ft | 258 kts | 8° |
| 2026-04-30 21:51 | 44.40206 | -93.19827 | 9534 ft | 258 kts | 9° |
| 2026-04-30 21:51 | 44.41954 | -93.19240 | 9180 ft | 258 kts | 14° |
| 2026-04-30 21:51 | 44.43632 | -93.18260 | 8874 ft | 261 kts | 25° |
| 2026-04-30 21:52 | 44.45186 | -93.16866 | 8891 ft | 268 kts | 31° |
| 2026-04-30 21:52 | 44.46727 | -93.15341 | 8916 ft | 270 kts | 32° |
| 2026-04-30 21:52 | 44.48243 | -93.13820 | 8940 ft | 270 kts | 32° |
| 2026-04-30 21:52 | 44.49793 | -93.12264 | 8957 ft | 270 kts | 32° |
| 2026-04-30 21:53 | 44.51321 | -93.10733 | 8695 ft | 272 kts | 32° |
| 2026-04-30 21:53 | 44.52864 | -93.09187 | 8303 ft | 271 kts | 32° |
| 2026-04-30 21:53 | 44.54406 | -93.07643 | 7939 ft | 269 kts | 32° |
| 2026-04-30 21:53 | 44.55918 | -93.06130 | 7593 ft | 266 kts | 32° |
| 2026-04-30 21:54 | 44.57426 | -93.04620 | 7283 ft | 262 kts | 32° |
| 2026-04-30 21:54 | 44.58910 | -93.03132 | 7078 ft | 254 kts | 32° |
| 2026-04-30 21:54 | 44.60313 | -93.01723 | 6988 ft | 242 kts | 32° |
| 2026-04-30 21:54 | 44.61677 | -93.00346 | 6982 ft | 234 kts | 32° |
| 2026-04-30 21:55 | 44.62952 | -92.99037 | 6962 ft | 221 kts | 34° |
| 2026-04-30 21:55 | 44.64159 | -92.97706 | 6971 ft | 217 kts | 34° |
| 2026-04-30 21:55 | 44.65332 | -92.96401 | 6974 ft | 216 kts | 34° |
| 2026-04-30 21:55 | 44.66523 | -92.95073 | 6876 ft | 218 kts | 34° |
| 2026-04-30 21:56 | 44.67718 | -92.93743 | 6541 ft | 218 kts | 34° |
| 2026-04-30 21:56 | 44.68944 | -92.92474 | 6205 ft | 215 kts | 23° |
| 2026-04-30 21:56 | 44.70369 | -92.92126 | 5984 ft | 204 kts | 348° |
| 2026-04-30 21:56 | 44.71685 | -92.92896 | 5991 ft | 206 kts | 324° |
| 2026-04-30 21:57 | 44.72828 | -92.94118 | 5993 ft | 206 kts | 323° |
| 2026-04-30 21:57 | 44.73976 | -92.95337 | 5987 ft | 207 kts | 323° |
| 2026-04-30 21:57 | 44.75126 | -92.96553 | 5863 ft | 202 kts | 323° |
| 2026-04-30 21:57 | 44.76263 | -92.97756 | 5516 ft | 204 kts | 324° |
| 2026-04-30 21:58 | 44.77396 | -92.98952 | 5197 ft | 203 kts | 324° |
| 2026-04-30 21:58 | 44.78514 | -93.00173 | 4881 ft | 201 kts | 317° |
| 2026-04-30 21:58 | 44.79380 | -93.01665 | 4692 ft | 188 kts | 306° |
| 2026-04-30 21:58 | 44.80067 | -93.03204 | 4450 ft | 176 kts | 304° |
| 2026-04-30 21:59 | 44.80674 | -93.04638 | 4194 ft | 165 kts | 304° |
| 2026-04-30 21:59 | 44.81255 | -93.06010 | 3914 ft | 158 kts | 304° |
| 2026-04-30 21:59 | 44.81799 | -93.07282 | 3729 ft | 144 kts | 304° |
| 2026-04-30 22:00 | 44.82811 | -93.09630 | 3025 ft | 137 kts | 305° |
| 2026-04-30 22:00 | 44.83975 | -93.11802 | 2934 ft | 140 kts | 314° |
| 2026-04-30 22:00 | 44.84777 | -93.12557 | 2568 ft | 138 kts | 331° |
| 2026-04-30 22:01 | 44.85509 | -93.13437 | 2126 ft | 140 kts | 307° |
| 2026-04-30 22:01 | 44.86011 | -93.14586 | 1820 ft | 137 kts | 304° |
| 2026-04-30 22:01 | 44.86502 | -93.15743 | 1535 ft | 136 kts | 305° |
| 2026-04-30 22:01 | 44.87033 | -93.16872 | 1278 ft | 136 kts | 305° |
| 2026-04-30 22:02 | 44.87537 | -93.18018 | 1079 ft | 135 kts | 304° |
| 2026-04-30 22:02 | 44.88025 | -93.19160 | 872 ft | 134 kts | 303° |
| 2026-04-30 22:02 | 44.88488 | -93.20243 | 819 ft | 117 kts | 303° |
| 2026-04-30 22:02 | 44.88836 | -93.21037 | 827 ft | 68 kts | 302° |
| 2026-04-30 22:03 | 44.88997 | -93.21408 | 831 ft | 29 kts | 302° |
| 2026-04-30 22:03 | 44.89008 | -93.21610 | 832 ft | 21 kts | 215° |
| 2026-04-30 22:03 | 44.88927 | -93.21725 | 833 ft | 7 kts | 194° |
| 2026-04-30 22:03 | 44.88877 | -93.21672 | 832 ft | 10 kts | 132° |
| 2026-04-30 22:04 | 44.88824 | -93.21584 | 831 ft | 12 kts | 123° |
| 2026-04-30 22:04 | 44.88780 | -93.21487 | 830 ft | 10 kts | 152° |
| 2026-04-30 22:04 | 44.88628 | -93.21618 | 830 ft | 12 kts | 175° |
| 2026-04-30 22:05 | 44.88539 | -93.21602 | 829 ft | 12 kts | 163° |
| 2026-04-30 22:05 | 44.88483 | -93.21531 | 828 ft | 7 kts | 121° |
| 2026-04-30 22:05 | 44.88468 | -93.21487 | 828 ft | 5 kts | 114° |
| 2026-04-30 22:05 | 44.88449 | -93.21428 | 827 ft | 7 kts | 114° |
| 2026-04-30 22:06 | 44.88426 | -93.21365 | 827 ft | 5 kts | 145° |
| 2026-04-30 22:06 | 44.88385 | -93.21392 | 827 ft | 0 kts | 216° |